Preston, United Kingdom
Current Conditions -  °F | °C
As of 7:50 AM on Saturday 29 Nov 2014 (Local Time) from EGOW Reporting Station
Haze Haze  
Wind Chill: 46°   Ceiling: 6000
Heat Index: 48°   Visibility: 5mi
Dew Point: 46°   Wind: 6mph
Humidity: 93%   Direction: 100°E
Pressure: 29.83"   Gusts: NA
Location:  53.76°N, 2.71°W
Report Text: EGOW 290750Z 10005KT 8000 HZ FEW018 BKN060 09/08 Q1010 BLU
Loading
Personal Weather Stations






























Interactive Weather Map New forecast layout! Learn more

10-Day Weather Forecast

Advertisements
Track Severe Weather on mobile